sensor_id;sensor_type;location;lat;lon;timestamp;temperature;humidity
49413;DHT22;35493;50.276;9.372;2023-07-02T00:00:12;19.00;85.00
49413;DHT22;35493;50.276;9.372;2023-07-02T00:02:39;18.90;84.80
49413;DHT22;35493;50.276;9.372;2023-07-02T00:05:07;19.00;84.70
49413;DHT22;35493;50.276;9.372;2023-07-02T00:07:34;19.00;84.80
49413;DHT22;35493;50.276;9.372;2023-07-02T00:10:03;18.90;84.60
49413;DHT22;35493;50.276;9.372;2023-07-02T00:12:30;19.00;84.60
49413;DHT22;35493;50.276;9.372;2023-07-02T00:14:57;18.90;84.60
49413;DHT22;35493;50.276;9.372;2023-07-02T00:17:24;18.90;84.80
49413;DHT22;35493;50.276;9.372;2023-07-02T00:19:51;18.90;84.70
49413;DHT22;35493;50.276;9.372;2023-07-02T00:22:18;18.90;84.40
49413;DHT22;35493;50.276;9.372;2023-07-02T00:24:45;18.90;84.60
49413;DHT22;35493;50.276;9.372;2023-07-02T00:27:13;18.90;84.70
49413;DHT22;35493;50.276;9.372;2023-07-02T00:29:40;18.90;85.00
49413;DHT22;35493;50.276;9.372;2023-07-02T00:32:07;18.80;84.60
49413;DHT22;35493;50.276;9.372;2023-07-02T00:34:34;18.90;84.60
49413;DHT22;35493;50.276;9.372;2023-07-02T00:37:01;18.90;84.50
49413;DHT22;35493;50.276;9.372;2023-07-02T00:39:28;18.80;84.70
49413;DHT22;35493;50.276;9.372;2023-07-02T00:42:00;18.80;84.60
49413;DHT22;35493;50.276;9.372;2023-07-02T00:44:29;18.80;84.60
49413;DHT22;35493;50.276;9.372;2023-07-02T00:46:56;18.70;84.50
49413;DHT22;35493;50.276;9.372;2023-07-02T00:49:24;18.70;84.60
49413;DHT22;35493;50.276;9.372;2023-07-02T00:51:51;18.70;84.50
49413;DHT22;35493;50.276;9.372;2023-07-02T00:54:18;18.70;84.60
49413;DHT22;35493;50.276;9.372;2023-07-02T00:56:45;18.60;84.30
49413;DHT22;35493;50.276;9.372;2023-07-02T00:59:14;18.60;84.50
49413;DHT22;35493;50.276;9.372;2023-07-02T01:01:42;18.60;84.40
49413;DHT22;35493;50.276;9.372;2023-07-02T01:04:17;18.70;84.00
49413;DHT22;35493;50.276;9.372;2023-07-02T01:06:44;18.60;84.00
49413;DHT22;35493;50.276;9.372;2023-07-02T01:09:11;18.60;84.00
49413;DHT22;35493;50.276;9.372;2023-07-02T01:11:41;18.60;83.80
49413;DHT22;35493;50.276;9.372;2023-07-02T01:14:13;18.60;83.90
49413;DHT22;35493;50.276;9.372;2023-07-02T01:16:43;18.50;84.10
49413;DHT22;35493;50.276;9.372;2023-07-02T01:19:12;18.50;84.20
49413;DHT22;35493;50.276;9.372;2023-07-02T01:21:41;18.50;84.00
49413;DHT22;35493;50.276;9.372;2023-07-02T01:24:08;18.50;83.80
49413;DHT22;35493;50.276;9.372;2023-07-02T01:26:35;18.40;83.80
49413;DHT22;35493;50.276;9.372;2023-07-02T01:29:13;18.40;83.90
49413;DHT22;35493;50.276;9.372;2023-07-02T01:31:40;18.50;83.60
49413;DHT22;35493;50.276;9.372;2023-07-02T01:34:07;18.40;83.60
49413;DHT22;35493;50.276;9.372;2023-07-02T01:36:35;18.50;83.40
49413;DHT22;35493;50.276;9.372;2023-07-02T01:39:04;18.40;83.60
49413;DHT22;35493;50.276;9.372;2023-07-02T01:41:33;18.30;83.90
49413;DHT22;35493;50.276;9.372;2023-07-02T01:44:00;18.30;84.00
49413;DHT22;35493;50.276;9.372;2023-07-02T01:46:27;18.30;83.70
49413;DHT22;35493;50.276;9.372;2023-07-02T01:48:54;18.30;83.80
49413;DHT22;35493;50.276;9.372;2023-07-02T01:51:21;18.30;83.80
49413;DHT22;35493;50.276;9.372;2023-07-02T01:53:48;18.30;83.80
49413;DHT22;35493;50.276;9.372;2023-07-02T01:56:16;18.30;83.70
49413;DHT22;35493;50.276;9.372;2023-07-02T01:58:44;18.30;83.80
49413;DHT22;35493;50.276;9.372;2023-07-02T02:01:11;18.20;83.70
49413;DHT22;35493;50.276;9.372;2023-07-02T02:03:38;18.30;83.50
49413;DHT22;35493;50.276;9.372;2023-07-02T02:06:05;18.30;83.60
49413;DHT22;35493;50.276;9.372;2023-07-02T02:08:32;18.20;83.80
49413;DHT22;35493;50.276;9.372;2023-07-02T02:10:59;18.20;84.00
49413;DHT22;35493;50.276;9.372;2023-07-02T02:13:30;18.10;84.10
49413;DHT22;35493;50.276;9.372;2023-07-02T02:15:57;18.10;84.20
49413;DHT22;35493;50.276;9.372;2023-07-02T02:18:24;18.20;83.90
49413;DHT22;35493;50.276;9.372;2023-07-02T02:20:52;18.20;84.00
49413;DHT22;35493;50.276;9.372;2023-07-02T02:23:19;18.20;83.70
49413;DHT22;35493;50.276;9.372;2023-07-02T02:25:46;18.20;83.70
49413;DHT22;35493;50.276;9.372;2023-07-02T02:28:13;18.20;83.40
49413;DHT22;35493;50.276;9.372;2023-07-02T02:30:41;18.20;83.40
49413;DHT22;35493;50.276;9.372;2023-07-02T02:33:08;18.10;83.90
49413;DHT22;35493;50.276;9.372;2023-07-02T02:35:35;18.10;83.80
49413;DHT22;35493;50.276;9.372;2023-07-02T02:38:03;18.10;83.60
49413;DHT22;35493;50.276;9.372;2023-07-02T02:40:30;18.10;83.90
49413;DHT22;35493;50.276;9.372;2023-07-02T02:42:57;18.10;83.80
49413;DHT22;35493;50.276;9.372;2023-07-02T02:45:24;18.10;83.70
49413;DHT22;35493;50.276;9.372;2023-07-02T02:47:53;18.10;83.70
49413;DHT22;35493;50.276;9.372;2023-07-02T02:50:20;18.10;83.60
49413;DHT22;35493;50.276;9.372;2023-07-02T02:52:47;18.00;83.60
49413;DHT22;35493;50.276;9.372;2023-07-02T02:55:14;18.10;83.20
49413;DHT22;35493;50.276;9.372;2023-07-02T02:57:40;18.10;83.20
49413;DHT22;35493;50.276;9.372;2023-07-02T03:00:09;18.10;83.00
49413;DHT22;35493;50.276;9.372;2023-07-02T03:02:38;17.90;82.90
49413;DHT22;35493;50.276;9.372;2023-07-02T03:05:07;17.90;83.00
49413;DHT22;35493;50.276;9.372;2023-07-02T03:07:34;17.90;82.70
49413;DHT22;35493;50.276;9.372;2023-07-02T03:10:02;18.00;82.60
49413;DHT22;35493;50.276;9.372;2023-07-02T03:12:29;17.90;82.20
49413;DHT22;35493;50.276;9.372;2023-07-02T03:14:56;17.90;82.10
49413;DHT22;35493;50.276;9.372;2023-07-02T03:17:23;17.90;81.90
49413;DHT22;35493;50.276;9.372;2023-07-02T03:19:50;17.90;81.90
49413;DHT22;35493;50.276;9.372;2023-07-02T03:22:19;17.80;81.90
49413;DHT22;35493;50.276;9.372;2023-07-02T03:24:46;17.80;81.70
49413;DHT22;35493;50.276;9.372;2023-07-02T03:27:12;17.90;81.40
49413;DHT22;35493;50.276;9.372;2023-07-02T03:29:39;17.80;81.70
49413;DHT22;35493;50.276;9.372;2023-07-02T03:32:07;17.80;81.50
49413;DHT22;35493;50.276;9.372;2023-07-02T03:34:34;17.80;81.50
49413;DHT22;35493;50.276;9.372;2023-07-02T03:37:01;17.80;81.60
49413;DHT22;35493;50.276;9.372;2023-07-02T03:39:29;17.80;81.50
49413;DHT22;35493;50.276;9.372;2023-07-02T03:41:56;17.80;81.10
49413;DHT22;35493;50.276;9.372;2023-07-02T03:44:23;17.70;81.20
49413;DHT22;35493;50.276;9.372;2023-07-02T03:46:50;17.70;81.10
49413;DHT22;35493;50.276;9.372;2023-07-02T03:49:17;17.70;80.90
49413;DHT22;35493;50.276;9.372;2023-07-02T03:51:44;17.70;80.50
49413;DHT22;35493;50.276;9.372;2023-07-02T03:54:10;17.60;80.40
49413;DHT22;35493;50.276;9.372;2023-07-02T03:56:39;17.60;80.30
49413;DHT22;35493;50.276;9.372;2023-07-02T03:59:06;17.60;80.20
49413;DHT22;35493;50.276;9.372;2023-07-02T04:01:32;17.60;79.90
49413;DHT22;35493;50.276;9.372;2023-07-02T04:03:59;17.60;79.90
49413;DHT22;35493;50.276;9.372;2023-07-02T04:06:26;17.60;79.60
49413;DHT22;35493;50.276;9.372;2023-07-02T04:08:53;17.60;79.50
49413;DHT22;35493;50.276;9.372;2023-07-02T04:11:20;17.70;79.10
49413;DHT22;35493;50.276;9.372;2023-07-02T04:13:48;17.60;79.40
49413;DHT22;35493;50.276;9.372;2023-07-02T04:16:15;17.60;79.40
49413;DHT22;35493;50.276;9.372;2023-07-02T04:18:42;17.60;79.20
49413;DHT22;35493;50.276;9.372;2023-07-02T04:21:09;17.60;79.20
49413;DHT22;35493;50.276;9.372;2023-07-02T04:23:36;17.50;79.40
49413;DHT22;35493;50.276;9.372;2023-07-02T04:26:03;17.60;79.40
49413;DHT22;35493;50.276;9.372;2023-07-02T04:28:30;17.60;79.40
49413;DHT22;35493;50.276;9.372;2023-07-02T04:30:58;17.50;79.00
49413;DHT22;35493;50.276;9.372;2023-07-02T04:33:25;17.60;78.70
49413;DHT22;35493;50.276;9.372;2023-07-02T04:36:01;17.40;79.10
49413;DHT22;35493;50.276;9.372;2023-07-02T04:38:28;17.50;78.80
49413;DHT22;35493;50.276;9.372;2023-07-02T04:41:07;17.50;78.70
49413;DHT22;35493;50.276;9.372;2023-07-02T04:43:36;17.50;78.60
49413;DHT22;35493;50.276;9.372;2023-07-02T04:46:05;17.60;78.60
49413;DHT22;35493;50.276;9.372;2023-07-02T04:48:33;17.50;78.50
49413;DHT22;35493;50.276;9.372;2023-07-02T04:51:00;17.50;78.50
49413;DHT22;35493;50.276;9.372;2023-07-02T04:53:27;17.50;78.80
49413;DHT22;35493;50.276;9.372;2023-07-02T04:55:54;17.50;78.80
49413;DHT22;35493;50.276;9.372;2023-07-02T04:58:22;17.50;78.90
49413;DHT22;35493;50.276;9.372;2023-07-02T05:00:49;17.50;79.10
49413;DHT22;35493;50.276;9.372;2023-07-02T05:03:17;17.50;78.60
49413;DHT22;35493;50.276;9.372;2023-07-02T05:05:46;17.50;78.60
49413;DHT22;35493;50.276;9.372;2023-07-02T05:08:14;17.50;78.50
49413;DHT22;35493;50.276;9.372;2023-07-02T05:10:41;17.60;78.40
49413;DHT22;35493;50.276;9.372;2023-07-02T05:13:08;17.50;78.20
49413;DHT22;35493;50.276;9.372;2023-07-02T05:15:35;17.60;78.30
49413;DHT22;35493;50.276;9.372;2023-07-02T05:18:02;17.60;77.90
49413;DHT22;35493;50.276;9.372;2023-07-02T05:20:31;17.60;77.70
49413;DHT22;35493;50.276;9.372;2023-07-02T05:22:57;17.50;77.40
49413;DHT22;35493;50.276;9.372;2023-07-02T05:25:24;17.40;77.40
49413;DHT22;35493;50.276;9.372;2023-07-02T05:27:52;17.50;77.40
49413;DHT22;35493;50.276;9.372;2023-07-02T05:30:19;17.40;77.40
49413;DHT22;35493;50.276;9.372;2023-07-02T05:32:46;17.50;77.20
49413;DHT22;35493;50.276;9.372;2023-07-02T05:35:13;17.40;77.00
49413;DHT22;35493;50.276;9.372;2023-07-02T05:37:41;17.40;76.80
49413;DHT22;35493;50.276;9.372;2023-07-02T05:40:09;17.50;76.80
49413;DHT22;35493;50.276;9.372;2023-07-02T05:42:36;17.50;76.50
49413;DHT22;35493;50.276;9.372;2023-07-02T05:45:04;17.60;76.10
49413;DHT22;35493;50.276;9.372;2023-07-02T05:47:31;17.60;76.00
49413;DHT22;35493;50.276;9.372;2023-07-02T05:49:58;17.60;76.20
49413;DHT22;35493;50.276;9.372;2023-07-02T05:52:25;17.60;76.20
49413;DHT22;35493;50.276;9.372;2023-07-02T05:54:53;17.60;76.20
49413;DHT22;35493;50.276;9.372;2023-07-02T05:57:20;17.60;76.40
49413;DHT22;35493;50.276;9.372;2023-07-02T05:59:47;17.60;76.40
49413;DHT22;35493;50.276;9.372;2023-07-02T06:02:14;17.60;76.30
49413;DHT22;35493;50.276;9.372;2023-07-02T06:04:41;17.70;76.10
49413;DHT22;35493;50.276;9.372;2023-07-02T06:07:07;17.80;75.50
49413;DHT22;35493;50.276;9.372;2023-07-02T06:09:34;17.80;74.90
49413;DHT22;35493;50.276;9.372;2023-07-02T06:12:03;17.80;74.40
49413;DHT22;35493;50.276;9.372;2023-07-02T06:14:30;17.90;74.40
49413;DHT22;35493;50.276;9.372;2023-07-02T06:16:57;17.90;74.20
49413;DHT22;35493;50.276;9.372;2023-07-02T06:19:24;17.90;73.70
49413;DHT22;35493;50.276;9.372;2023-07-02T06:21:51;17.90;73.30
49413;DHT22;35493;50.276;9.372;2023-07-02T06:24:18;18.00;72.90
49413;DHT22;35493;50.276;9.372;2023-07-02T06:26:45;18.00;73.20
49413;DHT22;35493;50.276;9.372;2023-07-02T06:29:13;18.00;73.10
49413;DHT22;35493;50.276;9.372;2023-07-02T06:31:40;18.00;73.10
49413;DHT22;35493;50.276;9.372;2023-07-02T06:34:07;18.10;73.10
49413;DHT22;35493;50.276;9.372;2023-07-02T06:36:35;18.10;73.00
49413;DHT22;35493;50.276;9.372;2023-07-02T06:39:02;18.10;72.90
49413;DHT22;35493;50.276;9.372;2023-07-02T06:41:29;18.10;73.00
49413;DHT22;35493;50.276;9.372;2023-07-02T06:43:56;18.10;72.70
49413;DHT22;35493;50.276;9.372;2023-07-02T06:46:24;18.10;72.60
49413;DHT22;35493;50.276;9.372;2023-07-02T06:48:52;18.10;72.70
49413;DHT22;35493;50.276;9.372;2023-07-02T06:51:19;18.10;72.60
49413;DHT22;35493;50.276;9.372;2023-07-02T06:53:47;18.10;72.30
49413;DHT22;35493;50.276;9.372;2023-07-02T06:56:14;18.20;72.40
49413;DHT22;35493;50.276;9.372;2023-07-02T06:58:42;18.10;72.20
49413;DHT22;35493;50.276;9.372;2023-07-02T07:01:09;18.10;72.00
49413;DHT22;35493;50.276;9.372;2023-07-02T07:03:38;18.10;72.10
49413;DHT22;35493;50.276;9.372;2023-07-02T07:06:05;18.10;72.10
49413;DHT22;35493;50.276;9.372;2023-07-02T07:08:32;18.10;72.00
49413;DHT22;35493;50.276;9.372;2023-07-02T07:11:00;18.10;71.80
49413;DHT22;35493;50.276;9.372;2023-07-02T07:13:32;18.10;71.60
49413;DHT22;35493;50.276;9.372;2023-07-02T07:16:07;18.10;71.60
49413;DHT22;35493;50.276;9.372;2023-07-02T07:18:36;18.10;71.70
49413;DHT22;35493;50.276;9.372;2023-07-02T07:21:06;18.10;71.50
49413;DHT22;35493;50.276;9.372;2023-07-02T07:23:33;18.20;71.60
49413;DHT22;35493;50.276;9.372;2023-07-02T07:26:00;18.30;71.20
49413;DHT22;35493;50.276;9.372;2023-07-02T07:28:27;18.30;71.40
49413;DHT22;35493;50.276;9.372;2023-07-02T07:30:54;18.40;71.10
49413;DHT22;35493;50.276;9.372;2023-07-02T07:33:30;18.40;70.90
49413;DHT22;35493;50.276;9.372;2023-07-02T07:35:58;18.40;70.70
49413;DHT22;35493;50.276;9.372;2023-07-02T07:38:27;18.40;70.50
49413;DHT22;35493;50.276;9.372;2023-07-02T07:40:54;18.40;70.40
49413;DHT22;35493;50.276;9.372;2023-07-02T07:43:21;18.50;70.60
49413;DHT22;35493;50.276;9.372;2023-07-02T07:45:48;18.50;70.60
49413;DHT22;35493;50.276;9.372;2023-07-02T07:48:15;18.50;70.60
49413;DHT22;35493;50.276;9.372;2023-07-02T07:50:42;18.60;70.40
49413;DHT22;35493;50.276;9.372;2023-07-02T07:53:09;18.60;70.50
49413;DHT22;35493;50.276;9.372;2023-07-02T07:55:37;18.80;70.10
49413;DHT22;35493;50.276;9.372;2023-07-02T07:58:04;18.80;70.00
49413;DHT22;35493;50.276;9.372;2023-07-02T08:00:31;18.90;70.00
49413;DHT22;35493;50.276;9.372;2023-07-02T08:02:58;18.90;70.20
49413;DHT22;35493;50.276;9.372;2023-07-02T08:05:26;19.00;70.30
49413;DHT22;35493;50.276;9.372;2023-07-02T08:07:53;19.00;70.00
49413;DHT22;35493;50.276;9.372;2023-07-02T08:10:20;18.90;70.00
49413;DHT22;35493;50.276;9.372;2023-07-02T08:12:49;18.90;69.90
49413;DHT22;35493;50.276;9.372;2023-07-02T08:15:17;18.90;69.90
49413;DHT22;35493;50.276;9.372;2023-07-02T08:17:44;18.90;69.90
49413;DHT22;35493;50.276;9.372;2023-07-02T08:20:11;19.00;69.70
49413;DHT22;35493;50.276;9.372;2023-07-02T08:22:39;19.00;69.60
49413;DHT22;35493;50.276;9.372;2023-07-02T08:25:07;19.10;69.60
49413;DHT22;35493;50.276;9.372;2023-07-02T08:27:35;19.20;69.40
49413;DHT22;35493;50.276;9.372;2023-07-02T08:30:04;19.50;68.80
49413;DHT22;35493;50.276;9.372;2023-07-02T08:32:31;19.70;68.40
49413;DHT22;35493;50.276;9.372;2023-07-02T08:34:59;20.00;67.80
49413;DHT22;35493;50.276;9.372;2023-07-02T08:37:25;20.20;67.40
49413;DHT22;35493;50.276;9.372;2023-07-02T08:39:52;20.40;66.90
49413;DHT22;35493;50.276;9.372;2023-07-02T08:42:19;20.50;66.80
49413;DHT22;35493;50.276;9.372;2023-07-02T08:44:47;20.60;65.80
49413;DHT22;35493;50.276;9.372;2023-07-02T08:47:15;20.70;65.70
49413;DHT22;35493;50.276;9.372;2023-07-02T08:49:42;20.60;65.80
49413;DHT22;35493;50.276;9.372;2023-07-02T08:52:09;20.70;65.60
49413;DHT22;35493;50.276;9.372;2023-07-02T08:54:36;20.90;64.80
49413;DHT22;35493;50.276;9.372;2023-07-02T08:57:04;21.00;64.20
49413;DHT22;35493;50.276;9.372;2023-07-02T08:59:31;21.20;63.80
49413;DHT22;35493;50.276;9.372;2023-07-02T09:01:58;21.20;63.50
49413;DHT22;35493;50.276;9.372;2023-07-02T09:04:27;21.20;63.50
49413;DHT22;35493;50.276;9.372;2023-07-02T09:07:04;21.30;63.10
49413;DHT22;35493;50.276;9.372;2023-07-02T09:09:31;21.40;62.80
49413;DHT22;35493;50.276;9.372;2023-07-02T09:11:58;21.50;63.10
49413;DHT22;35493;50.276;9.372;2023-07-02T09:14:26;21.70;62.80
49413;DHT22;35493;50.276;9.372;2023-07-02T09:17:04;21.90;62.50
49413;DHT22;35493;50.276;9.372;2023-07-02T09:19:33;22.10;61.80
49413;DHT22;35493;50.276;9.372;2023-07-02T09:22:01;22.30;61.10
49413;DHT22;35493;50.276;9.372;2023-07-02T09:24:30;22.30;60.70
49413;DHT22;35493;50.276;9.372;2023-07-02T09:26:58;22.30;60.50
49413;DHT22;35493;50.276;9.372;2023-07-02T09:29:27;22.20;60.30
49413;DHT22;35493;50.276;9.372;2023-07-02T09:31:55;22.10;60.60
49413;DHT22;35493;50.276;9.372;2023-07-02T09:34:27;22.10;60.60
49413;DHT22;35493;50.276;9.372;2023-07-02T09:36:56;22.30;60.30
49413;DHT22;35493;50.276;9.372;2023-07-02T09:39:28;22.50;60.10
49413;DHT22;35493;50.276;9.372;2023-07-02T09:41:55;22.80;60.40
49413;DHT22;35493;50.276;9.372;2023-07-02T09:44:26;22.80;60.00
49413;DHT22;35493;50.276;9.372;2023-07-02T09:46:59;22.80;59.30
49413;DHT22;35493;50.276;9.372;2023-07-02T09:49:27;22.90;58.30
49413;DHT22;35493;50.276;9.372;2023-07-02T09:51:58;22.90;58.40
49413;DHT22;35493;50.276;9.372;2023-07-02T09:54:25;22.70;58.40
49413;DHT22;35493;50.276;9.372;2023-07-02T09:56:53;22.60;58.50
49413;DHT22;35493;50.276;9.372;2023-07-02T09:59:19;22.60;58.80
49413;DHT22;35493;50.276;9.372;2023-07-02T10:01:47;22.60;58.70
49413;DHT22;35493;50.276;9.372;2023-07-02T10:04:14;22.90;58.80
49413;DHT22;35493;50.276;9.372;2023-07-02T10:06:46;22.90;57.50
49413;DHT22;35493;50.276;9.372;2023-07-02T10:09:15;23.10;57.40
49413;DHT22;35493;50.276;9.372;2023-07-02T10:11:42;23.00;56.80
49413;DHT22;35493;50.276;9.372;2023-07-02T10:14:09;23.00;56.90
49413;DHT22;35493;50.276;9.372;2023-07-02T10:16:49;23.00;57.20
49413;DHT22;35493;50.276;9.372;2023-07-02T10:19:16;23.10;56.80
49413;DHT22;35493;50.276;9.372;2023-07-02T10:21:43;23.20;56.70
49413;DHT22;35493;50.276;9.372;2023-07-02T10:24:12;23.10;56.20
49413;DHT22;35493;50.276;9.372;2023-07-02T10:26:51;23.10;56.30
49413;DHT22;35493;50.276;9.372;2023-07-02T10:29:19;23.00;55.90
49413;DHT22;35493;50.276;9.372;2023-07-02T10:31:51;23.10;56.10
49413;DHT22;35493;50.276;9.372;2023-07-02T10:34:31;23.40;56.00
49413;DHT22;35493;50.276;9.372;2023-07-02T10:37:00;23.70;55.70
49413;DHT22;35493;50.276;9.372;2023-07-02T10:39:27;24.00;55.50
49413;DHT22;35493;50.276;9.372;2023-07-02T10:42:04;24.20;54.90
49413;DHT22;35493;50.276;9.372;2023-07-02T10:44:32;24.30;54.00
49413;DHT22;35493;50.276;9.372;2023-07-02T10:46:59;24.30;53.70
49413;DHT22;35493;50.276;9.372;2023-07-02T10:49:31;24.30;52.80
49413;DHT22;35493;50.276;9.372;2023-07-02T10:51:58;24.20;52.20
49413;DHT22;35493;50.276;9.372;2023-07-02T10:54:25;24.10;51.50
49413;DHT22;35493;50.276;9.372;2023-07-02T10:56:57;24.00;51.80
49413;DHT22;35493;50.276;9.372;2023-07-02T10:59:25;23.90;51.30
49413;DHT22;35493;50.276;9.372;2023-07-02T11:01:52;23.80;51.80
49413;DHT22;35493;50.276;9.372;2023-07-02T11:04:21;23.90;51.30
49413;DHT22;35493;50.276;9.372;2023-07-02T11:06:49;24.30;51.20
49413;DHT22;35493;50.276;9.372;2023-07-02T11:09:16;24.50;51.10
49413;DHT22;35493;50.276;9.372;2023-07-02T11:11:54;24.50;50.20
49413;DHT22;35493;50.276;9.372;2023-07-02T11:14:30;24.50;50.80
49413;DHT22;35493;50.276;9.372;2023-07-02T11:17:02;24.50;50.40
49413;DHT22;35493;50.276;9.372;2023-07-02T11:19:31;24.40;50.80
49413;DHT22;35493;50.276;9.372;2023-07-02T11:21:58;24.50;50.20
49413;DHT22;35493;50.276;9.372;2023-07-02T11:24:30;24.60;50.20
49413;DHT22;35493;50.276;9.372;2023-07-02T11:26:58;24.60;49.80
49413;DHT22;35493;50.276;9.372;2023-07-02T11:29:26;24.50;50.00
49413;DHT22;35493;50.276;9.372;2023-07-02T11:31:54;24.30;50.40
49413;DHT22;35493;50.276;9.372;2023-07-02T11:34:22;24.10;50.30
49413;DHT22;35493;50.276;9.372;2023-07-02T11:36:50;23.90;51.00
49413;DHT22;35493;50.276;9.372;2023-07-02T11:39:19;24.00;51.10
49413;DHT22;35493;50.276;9.372;2023-07-02T11:41:47;24.20;50.50
49413;DHT22;35493;50.276;9.372;2023-07-02T11:44:16;24.50;50.50
49413;DHT22;35493;50.276;9.372;2023-07-02T11:46:43;24.80;50.30
49413;DHT22;35493;50.276;9.372;2023-07-02T11:49:11;25.00;49.90
49413;DHT22;35493;50.276;9.372;2023-07-02T11:51:39;24.80;49.40
49413;DHT22;35493;50.276;9.372;2023-07-02T11:54:06;24.60;49.40
49413;DHT22;35493;50.276;9.372;2023-07-02T11:56:33;24.80;49.60
49413;DHT22;35493;50.276;9.372;2023-07-02T11:59:00;25.00;49.10
49413;DHT22;35493;50.276;9.372;2023-07-02T12:01:27;25.30;49.00
49413;DHT22;35493;50.276;9.372;2023-07-02T12:03:54;25.40;48.90
49413;DHT22;35493;50.276;9.372;2023-07-02T12:06:22;25.40;47.50
49413;DHT22;35493;50.276;9.372;2023-07-02T12:08:49;25.30;47.80
49413;DHT22;35493;50.276;9.372;2023-07-02T12:11:16;25.20;47.40
49413;DHT22;35493;50.276;9.372;2023-07-02T12:13:43;25.00;47.70
49413;DHT22;35493;50.276;9.372;2023-07-02T12:16:10;24.80;47.10
49413;DHT22;35493;50.276;9.372;2023-07-02T12:18:37;24.60;47.40
49413;DHT22;35493;50.276;9.372;2023-07-02T12:21:04;24.50;47.70
49413;DHT22;35493;50.276;9.372;2023-07-02T12:23:33;24.30;47.40
49413;DHT22;35493;50.276;9.372;2023-07-02T12:26:00;24.30;48.00
49413;DHT22;35493;50.276;9.372;2023-07-02T12:28:27;24.40;48.00
49413;DHT22;35493;50.276;9.372;2023-07-02T12:30:54;24.50;47.60
49413;DHT22;35493;50.276;9.372;2023-07-02T12:33:21;24.50;47.60
49413;DHT22;35493;50.276;9.372;2023-07-02T12:35:48;24.80;47.50
49413;DHT22;35493;50.276;9.372;2023-07-02T12:38:16;24.90;47.10
49413;DHT22;35493;50.276;9.372;2023-07-02T12:40:44;24.90;45.70
49413;DHT22;35493;50.276;9.372;2023-07-02T12:43:11;24.80;45.50
49413;DHT22;35493;50.276;9.372;2023-07-02T12:45:38;24.80;44.90
49413;DHT22;35493;50.276;9.372;2023-07-02T12:48:05;24.70;44.50
49413;DHT22;35493;50.276;9.372;2023-07-02T12:50:32;24.80;45.00
49413;DHT22;35493;50.276;9.372;2023-07-02T12:52:59;24.70;45.20
49413;DHT22;35493;50.276;9.372;2023-07-02T12:55:26;24.60;45.30
49413;DHT22;35493;50.276;9.372;2023-07-02T12:57:55;24.60;45.90
49413;DHT22;35493;50.276;9.372;2023-07-02T13:00:22;24.60;46.10
49413;DHT22;35493;50.276;9.372;2023-07-02T13:02:49;24.60;45.50
49413;DHT22;35493;50.276;9.372;2023-07-02T13:05:16;24.60;45.90
49413;DHT22;35493;50.276;9.372;2023-07-02T13:07:43;24.60;46.40
49413;DHT22;35493;50.276;9.372;2023-07-02T13:10:10;24.60;46.00
49413;DHT22;35493;50.276;9.372;2023-07-02T13:12:37;24.60;46.20
49413;DHT22;35493;50.276;9.372;2023-07-02T13:15:07;24.60;45.70
49413;DHT22;35493;50.276;9.372;2023-07-02T13:17:34;24.60;45.30
49413;DHT22;35493;50.276;9.372;2023-07-02T13:20:01;24.50;45.50
49413;DHT22;35493;50.276;9.372;2023-07-02T13:22:28;24.60;45.40
49413;DHT22;35493;50.276;9.372;2023-07-02T13:24:55;24.80;45.40
49413;DHT22;35493;50.276;9.372;2023-07-02T13:27:22;24.80;44.90
49413;DHT22;35493;50.276;9.372;2023-07-02T13:29:49;24.90;44.50
49413;DHT22;35493;50.276;9.372;2023-07-02T13:32:17;24.80;45.30
49413;DHT22;35493;50.276;9.372;2023-07-02T13:34:44;24.80;44.80
49413;DHT22;35493;50.276;9.372;2023-07-02T13:37:11;24.80;44.80
49413;DHT22;35493;50.276;9.372;2023-07-02T13:39:39;24.80;44.40
49413;DHT22;35493;50.276;9.372;2023-07-02T13:42:06;24.80;43.80
49413;DHT22;35493;50.276;9.372;2023-07-02T13:44:33;24.80;43.00
49413;DHT22;35493;50.276;9.372;2023-07-02T13:47:00;24.70;43.30
49413;DHT22;35493;50.276;9.372;2023-07-02T13:49:29;24.80;43.80
49413;DHT22;35493;50.276;9.372;2023-07-02T13:51:57;24.80;43.10
49413;DHT22;35493;50.276;9.372;2023-07-02T13:54:23;24.80;43.60
49413;DHT22;35493;50.276;9.372;2023-07-02T13:56:51;24.90;42.50
49413;DHT22;35493;50.276;9.372;2023-07-02T13:59:20;24.90;41.90
49413;DHT22;35493;50.276;9.372;2023-07-02T14:01:47;24.90;42.80
49413;DHT22;35493;50.276;9.372;2023-07-02T14:04:15;25.00;43.20
49413;DHT22;35493;50.276;9.372;2023-07-02T14:06:43;25.10;43.10
49413;DHT22;35493;50.276;9.372;2023-07-02T14:09:10;25.10;42.50
49413;DHT22;35493;50.276;9.372;2023-07-02T14:11:41;25.00;42.50
49413;DHT22;35493;50.276;9.372;2023-07-02T14:14:08;24.90;42.10
49413;DHT22;35493;50.276;9.372;2023-07-02T14:16:37;24.80;42.10
49413;DHT22;35493;50.276;9.372;2023-07-02T14:19:04;24.90;42.30
49413;DHT22;35493;50.276;9.372;2023-07-02T14:21:31;24.90;42.10
49413;DHT22;35493;50.276;9.372;2023-07-02T14:23:58;24.80;42.50
49413;DHT22;35493;50.276;9.372;2023-07-02T14:26:25;24.80;42.40
49413;DHT22;35493;50.276;9.372;2023-07-02T14:28:52;24.80;42.10
49413;DHT22;35493;50.276;9.372;2023-07-02T14:31:19;24.80;42.40
49413;DHT22;35493;50.276;9.372;2023-07-02T14:37:16;25.00;41.60
49413;DHT22;35493;50.276;9.372;2023-07-02T14:39:43;24.90;41.70
49413;DHT22;35493;50.276;9.372;2023-07-02T14:42:13;24.90;41.50
49413;DHT22;35493;50.276;9.372;2023-07-02T14:44:40;24.90;42.00
49413;DHT22;35493;50.276;9.372;2023-07-02T14:47:07;24.90;41.90
49413;DHT22;35493;50.276;9.372;2023-07-02T14:49:34;24.80;41.90
49413;DHT22;35493;50.276;9.372;2023-07-02T14:52:01;24.80;41.90
49413;DHT22;35493;50.276;9.372;2023-07-02T14:54:30;24.70;41.60
49413;DHT22;35493;50.276;9.372;2023-07-02T14:56:57;24.60;41.70
49413;DHT22;35493;50.276;9.372;2023-07-02T14:59:24;24.60;41.70
49413;DHT22;35493;50.276;9.372;2023-07-02T15:01:51;24.60;42.20
49413;DHT22;35493;50.276;9.372;2023-07-02T15:04:18;24.60;41.70
49413;DHT22;35493;50.276;9.372;2023-07-02T15:06:45;24.70;41.60
49413;DHT22;35493;50.276;9.372;2023-07-02T15:09:11;24.70;41.80
49413;DHT22;35493;50.276;9.372;2023-07-02T15:11:40;24.60;41.50
49413;DHT22;35493;50.276;9.372;2023-07-02T15:14:10;24.60;42.30
49413;DHT22;35493;50.276;9.372;2023-07-02T15:16:37;24.60;42.20
49413;DHT22;35493;50.276;9.372;2023-07-02T15:19:04;24.60;41.70
49413;DHT22;35493;50.276;9.372;2023-07-02T15:21:31;24.60;41.50
49413;DHT22;35493;50.276;9.372;2023-07-02T15:23:58;24.50;41.80
49413;DHT22;35493;50.276;9.372;2023-07-02T15:26:25;24.40;41.70
49413;DHT22;35493;50.276;9.372;2023-07-02T15:28:53;24.30;41.60
49413;DHT22;35493;50.276;9.372;2023-07-02T15:31:28;24.30;42.10
49413;DHT22;35493;50.276;9.372;2023-07-02T15:33:55;24.30;42.10
49413;DHT22;35493;50.276;9.372;2023-07-02T15:36:22;24.30;42.30